Aviation Digital Data Service (ADDS)

Output produced by METARs form (1314 UTC 10 July 2020)
found at http://www.aviationweather.gov/metar/data/
 
KGSP 101253Z 26003KT 10SM CLR 28/21 A2998 RMK AO2 SLP138 T02780206
KGSP 101123Z 1012/1112 25003KT P6SM SCT250 
     FM101800 23007KT P6SM SCT060 
     PROB30 1021/1024 4SM TSRA BR BKN050CB 
     FM110500 32005KT P6SM SCT090